sensor_id;sensor_type;location;lat;lon;timestamp;pressure;altitude;pressure_sealevel;temperature;humidity
75045;BME280;63614;56.026;35.960;2023-03-14T00:02:26;98583.50;;;-3.58;71.78
75045;BME280;63614;56.026;35.960;2023-03-14T00:04:55;98577.63;;;-3.59;72.24
75045;BME280;63614;56.026;35.960;2023-03-14T00:07:22;98576.00;;;-3.60;72.71
75045;BME280;63614;56.026;35.960;2023-03-14T00:09:50;98580.84;;;-3.45;72.79
75045;BME280;63614;56.026;35.960;2023-03-14T00:12:16;98576.69;;;-3.58;73.47
75045;BME280;63614;56.026;35.960;2023-03-14T00:14:42;98570.34;;;-3.63;74.14
75045;BME280;63614;56.026;35.960;2023-03-14T00:17:09;98560.41;;;-3.55;74.42
75045;BME280;63614;56.026;35.960;2023-03-14T00:19:35;98554.75;;;-3.59;75.12
75045;BME280;63614;56.026;35.960;2023-03-14T00:22:00;98554.75;;;-3.59;75.53
75045;BME280;63614;56.026;35.960;2023-03-14T00:24:26;98555.09;;;-3.52;75.28
75045;BME280;63614;56.026;35.960;2023-03-14T00:26:52;98547.34;;;-3.51;75.25
75045;BME280;63614;56.026;35.960;2023-03-14T00:29:18;98530.59;;;-3.53;76.33
75045;BME280;63614;56.026;35.960;2023-03-14T00:31:44;98508.16;;;-3.48;76.12
75045;BME280;63614;56.026;35.960;2023-03-14T00:34:10;98509.84;;;-3.37;76.16
75045;BME280;63614;56.026;35.960;2023-03-14T00:36:36;98501.75;;;-3.31;76.58
75045;BME280;63614;56.026;35.960;2023-03-14T00:39:02;98493.88;;;-3.28;76.50
75045;BME280;63614;56.026;35.960;2023-03-14T00:41:30;98497.09;;;-3.26;76.82
75045;BME280;63614;56.026;35.960;2023-03-14T00:43:56;98492.09;;;-3.16;76.96
75045;BME280;63614;56.026;35.960;2023-03-14T00:46:22;98480.31;;;-3.17;77.80
75045;BME280;63614;56.026;35.960;2023-03-14T00:48:48;98465.75;;;-3.15;78.17
75045;BME280;63614;56.026;35.960;2023-03-14T00:51:14;98456.78;;;-3.10;78.18
75045;BME280;63614;56.026;35.960;2023-03-14T00:53:43;98451.09;;;-3.02;78.64
75045;BME280;63614;56.026;35.960;2023-03-14T00:56:11;98438.63;;;-3.05;79.43
75045;BME280;63614;56.026;35.960;2023-03-14T00:58:37;98443.34;;;-3.00;79.45
75045;BME280;63614;56.026;35.960;2023-03-14T01:01:13;98433.09;;;-3.10;80.50
75045;BME280;63614;56.026;35.960;2023-03-14T01:03:39;98437.69;;;-3.04;82.05
75045;BME280;63614;56.026;35.960;2023-03-14T01:06:17;98427.41;;;-3.02;82.12
75045;BME280;63614;56.026;35.960;2023-03-14T01:08:44;98422.56;;;-3.05;81.71
75045;BME280;63614;56.026;35.960;2023-03-14T01:11:16;98428.78;;;-2.98;82.30
75045;BME280;63614;56.026;35.960;2023-03-14T01:13:43;98447.13;;;-2.95;82.21
75045;BME280;63614;56.026;35.960;2023-03-14T01:16:10;98448.72;;;-2.94;81.73
75045;BME280;63614;56.026;35.960;2023-03-14T01:18:38;98435.09;;;-2.93;82.11
75045;BME280;63614;56.026;35.960;2023-03-14T01:21:10;98430.00;;;-2.93;82.05
75045;BME280;63614;56.026;35.960;2023-03-14T01:23:36;98414.72;;;-2.93;82.29
75045;BME280;63614;56.026;35.960;2023-03-14T01:26:02;98413.06;;;-2.82;82.80
75045;BME280;63614;56.026;35.960;2023-03-14T01:28:27;98393.63;;;-2.83;83.75
75045;BME280;63614;56.026;35.960;2023-03-14T01:30:53;98392.56;;;-2.81;84.85
75045;BME280;63614;56.026;35.960;2023-03-14T01:33:19;98383.94;;;-2.89;86.41
75045;BME280;63614;56.026;35.960;2023-03-14T01:35:45;98376.81;;;-2.96;86.95
75045;BME280;63614;56.026;35.960;2023-03-14T01:38:11;98363.28;;;-2.96;86.40
75045;BME280;63614;56.026;35.960;2023-03-14T01:40:44;98355.53;;;-2.95;86.65
75045;BME280;63614;56.026;35.960;2023-03-14T01:43:18;98351.78;;;-2.90;86.54
75045;BME280;63614;56.026;35.960;2023-03-14T01:51:19;98337.50;;;-2.82;84.53
75045;BME280;63614;56.026;35.960;2023-03-14T01:53:48;98327.84;;;-2.88;85.00
75045;BME280;63614;56.026;35.960;2023-03-14T01:56:17;98331.09;;;-2.76;85.28
75045;BME280;63614;56.026;35.960;2023-03-14T01:58:46;98336.06;;;-2.75;84.92
75045;BME280;63614;56.026;35.960;2023-03-14T02:01:40;98333.44;;;-2.63;85.55
75045;BME280;63614;56.026;35.960;2023-03-14T02:04:07;98325.94;;;-2.55;85.27
75045;BME280;63614;56.026;35.960;2023-03-14T02:06:44;98324.88;;;-2.52;84.98
75045;BME280;63614;56.026;35.960;2023-03-14T02:09:12;98315.50;;;-2.52;84.97
75045;BME280;63614;56.026;35.960;2023-03-14T02:11:39;98317.25;;;-2.43;85.06
75045;BME280;63614;56.026;35.960;2023-03-14T02:14:17;98315.78;;;-2.45;85.17
75045;BME280;63614;56.026;35.960;2023-03-14T02:17:08;98304.13;;;-2.38;85.41
75045;BME280;63614;56.026;35.960;2023-03-14T02:22:55;98290.72;;;-2.30;85.57
75045;BME280;63614;56.026;35.960;2023-03-14T02:25:32;98307.91;;;-2.32;85.44
75045;BME280;63614;56.026;35.960;2023-03-14T02:28:01;98311.13;;;-2.21;85.39
75045;BME280;63614;56.026;35.960;2023-03-14T02:30:30;98304.16;;;-2.18;85.42
75045;BME280;63614;56.026;35.960;2023-03-14T02:33:08;98298.94;;;-2.17;85.22
75045;BME280;63614;56.026;35.960;2023-03-14T02:38:13;98290.59;;;-2.09;85.85
75045;BME280;63614;56.026;35.960;2023-03-14T02:40:43;98292.75;;;-2.05;85.50
75045;BME280;63614;56.026;35.960;2023-03-14T02:43:10;98290.47;;;-1.98;85.18
75045;BME280;63614;56.026;35.960;2023-03-14T02:45:40;98290.75;;;-1.91;85.18
75045;BME280;63614;56.026;35.960;2023-03-14T02:48:11;98278.53;;;-1.88;84.70
75045;BME280;63614;56.026;35.960;2023-03-14T02:50:39;98277.19;;;-1.82;84.90
75045;BME280;63614;56.026;35.960;2023-03-14T02:53:05;98254.25;;;-1.82;85.45
75045;BME280;63614;56.026;35.960;2023-03-14T02:55:31;98269.97;;;-1.77;85.61
75045;BME280;63614;56.026;35.960;2023-03-14T02:58:03;98262.69;;;-1.72;85.33
75045;BME280;63614;56.026;35.960;2023-03-14T03:00:29;98256.91;;;-1.64;85.38
75045;BME280;63614;56.026;35.960;2023-03-14T03:02:56;98250.59;;;-1.60;86.00
75045;BME280;63614;56.026;35.960;2023-03-14T03:05:22;98243.06;;;-1.61;85.87
75045;BME280;63614;56.026;35.960;2023-03-14T03:07:47;98235.16;;;-1.58;86.52
75045;BME280;63614;56.026;35.960;2023-03-14T03:10:13;98228.59;;;-1.61;86.80
75045;BME280;63614;56.026;35.960;2023-03-14T03:12:40;98230.75;;;-1.56;86.36
75045;BME280;63614;56.026;35.960;2023-03-14T03:15:06;98228.72;;;-1.53;87.28
75045;BME280;63614;56.026;35.960;2023-03-14T03:17:35;98210.97;;;-1.44;86.73
75045;BME280;63614;56.026;35.960;2023-03-14T03:20:00;98204.47;;;-1.39;86.57
75045;BME280;63614;56.026;35.960;2023-03-14T03:22:26;98203.66;;;-1.30;85.99
75045;BME280;63614;56.026;35.960;2023-03-14T03:24:52;98209.72;;;-1.31;86.20
75045;BME280;63614;56.026;35.960;2023-03-14T03:27:18;98207.09;;;-1.21;86.21
75045;BME280;63614;56.026;35.960;2023-03-14T03:29:43;98222.69;;;-1.24;85.89
75045;BME280;63614;56.026;35.960;2023-03-14T03:32:10;98215.66;;;-1.12;86.17
75045;BME280;63614;56.026;35.960;2023-03-14T03:34:35;98222.09;;;-1.08;86.17
75045;BME280;63614;56.026;35.960;2023-03-14T03:37:01;98222.38;;;-1.11;86.60
75045;BME280;63614;56.026;35.960;2023-03-14T03:39:30;98214.28;;;-1.06;87.44
75045;BME280;63614;56.026;35.960;2023-03-14T03:41:56;98214.16;;;-1.05;87.19
75045;BME280;63614;56.026;35.960;2023-03-14T03:44:22;98205.25;;;-1.01;87.40
75045;BME280;63614;56.026;35.960;2023-03-14T03:46:47;98216.94;;;-0.98;87.38
75045;BME280;63614;56.026;35.960;2023-03-14T03:49:13;98201.06;;;-0.92;87.23
75045;BME280;63614;56.026;35.960;2023-03-14T03:51:39;98197.25;;;-0.88;87.36
75045;BME280;63614;56.026;35.960;2023-03-14T03:54:05;98192.91;;;-0.78;88.03
75045;BME280;63614;56.026;35.960;2023-03-14T03:56:32;98173.06;;;-0.84;87.34
75045;BME280;63614;56.026;35.960;2023-03-14T03:58:59;98160.66;;;-0.79;87.16
75045;BME280;63614;56.026;35.960;2023-03-14T04:01:25;98164.88;;;-0.69;87.01
75045;BME280;63614;56.026;35.960;2023-03-14T04:03:54;98156.72;;;-0.73;87.07
75045;BME280;63614;56.026;35.960;2023-03-14T04:06:19;98153.31;;;-0.64;86.51
75045;BME280;63614;56.026;35.960;2023-03-14T04:08:48;98132.25;;;-0.58;86.38
75045;BME280;63614;56.026;35.960;2023-03-14T04:11:26;98119.06;;;-0.53;86.40
75045;BME280;63614;56.026;35.960;2023-03-14T04:14:07;98118.31;;;-0.45;85.94
75045;BME280;63614;56.026;35.960;2023-03-14T04:16:33;98113.66;;;-0.50;86.16
75045;BME280;63614;56.026;35.960;2023-03-14T04:19:04;98109.56;;;-0.43;86.48
75045;BME280;63614;56.026;35.960;2023-03-14T04:21:32;98096.69;;;-0.33;86.12
75045;BME280;63614;56.026;35.960;2023-03-14T04:23:58;98108.34;;;-0.30;86.19
75045;BME280;63614;56.026;35.960;2023-03-14T04:26:29;98122.31;;;-0.25;86.10
75045;BME280;63614;56.026;35.960;2023-03-14T04:28:55;98118.06;;;-0.16;85.89
75045;BME280;63614;56.026;35.960;2023-03-14T04:31:22;98114.88;;;-0.10;85.99
75045;BME280;63614;56.026;35.960;2023-03-14T04:33:49;98114.94;;;-0.02;85.68
75045;BME280;63614;56.026;35.960;2023-03-14T04:36:19;98112.03;;;-0.07;85.08
75045;BME280;63614;56.026;35.960;2023-03-14T04:38:45;98101.19;;;-0.01;85.22
75045;BME280;63614;56.026;35.960;2023-03-14T04:41:12;98118.97;;;0.09;84.87
75045;BME280;63614;56.026;35.960;2023-03-14T04:43:39;98119.66;;;0.11;84.93
75045;BME280;63614;56.026;35.960;2023-03-14T04:46:07;98107.66;;;0.12;85.16
75045;BME280;63614;56.026;35.960;2023-03-14T04:48:33;98106.56;;;0.14;84.74
75045;BME280;63614;56.026;35.960;2023-03-14T04:51:00;98104.19;;;0.21;84.64
75045;BME280;63614;56.026;35.960;2023-03-14T04:53:29;98110.78;;;0.32;84.41
75045;BME280;63614;56.026;35.960;2023-03-14T04:55:56;98110.47;;;0.35;84.35
75045;BME280;63614;56.026;35.960;2023-03-14T04:58:26;98123.25;;;0.35;84.44
75045;BME280;63614;56.026;35.960;2023-03-14T05:00:53;98129.03;;;0.37;84.33
75045;BME280;63614;56.026;35.960;2023-03-14T05:03:49;98138.25;;;0.56;84.36
75045;BME280;63614;56.026;35.960;2023-03-14T05:06:14;98128.50;;;0.60;84.01
75045;BME280;63614;56.026;35.960;2023-03-14T05:08:59;98127.66;;;0.51;84.21
75045;BME280;63614;56.026;35.960;2023-03-14T05:11:24;98127.38;;;0.62;83.85
75045;BME280;63614;56.026;35.960;2023-03-14T05:14:10;98135.84;;;0.63;83.90
75045;BME280;63614;56.026;35.960;2023-03-14T05:16:54;98140.69;;;0.74;83.78
75045;BME280;63614;56.026;35.960;2023-03-14T05:19:36;98145.19;;;0.72;83.58
75045;BME280;63614;56.026;35.960;2023-03-14T05:22:12;98152.56;;;0.83;83.50
75045;BME280;63614;56.026;35.960;2023-03-14T05:24:56;98162.97;;;0.90;83.29
75045;BME280;63614;56.026;35.960;2023-03-14T05:27:49;98148.59;;;0.97;83.38
75045;BME280;63614;56.026;35.960;2023-03-14T05:30:31;98133.06;;;0.99;82.69
75045;BME280;63614;56.026;35.960;2023-03-14T05:33:21;98141.59;;;1.07;82.98
75045;BME280;63614;56.026;35.960;2023-03-14T05:36:02;98149.09;;;1.09;82.72
75045;BME280;63614;56.026;35.960;2023-03-14T05:38:54;98162.88;;;1.24;82.43
75045;BME280;63614;56.026;35.960;2023-03-14T05:41:55;98160.50;;;1.31;82.29
75045;BME280;63614;56.026;35.960;2023-03-14T05:44:42;98167.06;;;1.42;82.00
75045;BME280;63614;56.026;35.960;2023-03-14T05:47:34;98156.03;;;1.50;81.44
75045;BME280;63614;56.026;35.960;2023-03-14T05:50:35;98150.91;;;1.58;81.31
75045;BME280;63614;56.026;35.960;2023-03-14T05:53:23;98154.91;;;1.60;81.35
75045;BME280;63614;56.026;35.960;2023-03-14T05:56:09;98155.06;;;1.67;81.35
75045;BME280;63614;56.026;35.960;2023-03-14T05:58:57;98155.88;;;1.68;80.89
75045;BME280;63614;56.026;35.960;2023-03-14T06:01:37;98141.00;;;1.55;81.74
75045;BME280;63614;56.026;35.960;2023-03-14T06:04:11;98146.75;;;1.57;81.59
75045;BME280;63614;56.026;35.960;2023-03-14T06:06:38;98145.47;;;1.53;81.78
75045;BME280;63614;56.026;35.960;2023-03-14T06:09:05;98146.44;;;1.60;81.59
75045;BME280;63614;56.026;35.960;2023-03-14T06:11:34;98148.34;;;1.74;81.43
75045;BME280;63614;56.026;35.960;2023-03-14T06:14:00;98155.72;;;1.86;81.27
75045;BME280;63614;56.026;35.960;2023-03-14T06:16:25;98140.78;;;1.97;80.42
75045;BME280;63614;56.026;35.960;2023-03-14T06:18:53;98144.16;;;1.90;80.88
75045;BME280;63614;56.026;35.960;2023-03-14T06:21:20;98122.38;;;1.94;80.56
75045;BME280;63614;56.026;35.960;2023-03-14T06:23:47;98132.75;;;2.00;80.98
75045;BME280;63614;56.026;35.960;2023-03-14T06:26:13;98136.78;;;1.87;81.28
75045;BME280;63614;56.026;35.960;2023-03-14T06:28:39;98138.34;;;2.04;81.00
75045;BME280;63614;56.026;35.960;2023-03-14T06:31:05;98153.06;;;2.18;80.67
75045;BME280;63614;56.026;35.960;2023-03-14T06:33:39;98153.22;;;2.33;79.65
75045;BME280;63614;56.026;35.960;2023-03-14T06:36:06;98143.88;;;2.41;79.60
75045;BME280;63614;56.026;35.960;2023-03-14T06:38:33;98147.63;;;2.69;78.82
75045;BME280;63614;56.026;35.960;2023-03-14T06:41:06;98131.63;;;2.59;78.58
75045;BME280;63614;56.026;35.960;2023-03-14T06:43:43;98147.16;;;2.66;78.73
75045;BME280;63614;56.026;35.960;2023-03-14T06:46:09;98127.94;;;2.62;79.00
75045;BME280;63614;56.026;35.960;2023-03-14T06:48:38;98144.66;;;2.89;77.98
75045;BME280;63614;56.026;35.960;2023-03-14T06:51:04;98138.56;;;3.13;76.76
75045;BME280;63614;56.026;35.960;2023-03-14T06:53:30;98127.03;;;3.09;76.54
75045;BME280;63614;56.026;35.960;2023-03-14T06:55:58;98148.25;;;3.03;77.04
75045;BME280;63614;56.026;35.960;2023-03-14T06:58:26;98143.78;;;2.97;77.41
75045;BME280;63614;56.026;35.960;2023-03-14T07:00:53;98159.69;;;3.00;77.48
75045;BME280;63614;56.026;35.960;2023-03-14T07:03:23;98154.63;;;3.15;76.71
75045;BME280;63614;56.026;35.960;2023-03-14T07:05:52;98147.56;;;3.09;76.71
75045;BME280;63614;56.026;35.960;2023-03-14T07:08:18;98154.31;;;3.10;76.85
75045;BME280;63614;56.026;35.960;2023-03-14T07:10:44;98152.09;;;3.30;75.91
75045;BME280;63614;56.026;35.960;2023-03-14T07:13:10;98153.47;;;3.18;75.89
75045;BME280;63614;56.026;35.960;2023-03-14T07:15:47;98155.56;;;3.14;76.13
75045;BME280;63614;56.026;35.960;2023-03-14T07:18:13;98149.50;;;3.38;75.49
75045;BME280;63614;56.026;35.960;2023-03-14T07:20:39;98132.78;;;3.11;76.30
75045;BME280;63614;56.026;35.960;2023-03-14T07:23:06;98140.13;;;3.45;74.99
75045;BME280;63614;56.026;35.960;2023-03-14T07:25:39;98126.91;;;3.49;74.82
75045;BME280;63614;56.026;35.960;2023-03-14T07:28:05;98130.69;;;3.38;74.77
75045;BME280;63614;56.026;35.960;2023-03-14T07:30:31;98133.69;;;3.64;74.20
75045;BME280;63614;56.026;35.960;2023-03-14T07:32:59;98135.31;;;3.66;73.74
75045;BME280;63614;56.026;35.960;2023-03-14T07:35:25;98163.13;;;3.62;74.09
75045;BME280;63614;56.026;35.960;2023-03-14T07:37:51;98166.97;;;3.81;73.63
75045;BME280;63614;56.026;35.960;2023-03-14T07:40:23;98170.47;;;3.88;73.23
75045;BME280;63614;56.026;35.960;2023-03-14T07:42:49;98160.69;;;3.69;73.61
75045;BME280;63614;56.026;35.960;2023-03-14T07:45:25;98147.28;;;3.73;73.03
75045;BME280;63614;56.026;35.960;2023-03-14T07:47:50;98165.28;;;3.73;73.25
75045;BME280;63614;56.026;35.960;2023-03-14T07:50:16;98176.22;;;3.90;72.95
75045;BME280;63614;56.026;35.960;2023-03-14T07:52:42;98170.50;;;4.03;71.94
75045;BME280;63614;56.026;35.960;2023-03-14T07:55:08;98170.50;;;4.03;72.38
75045;BME280;63614;56.026;35.960;2023-03-14T07:57:34;98159.16;;;3.97;72.37
75045;BME280;63614;56.026;35.960;2023-03-14T07:59:59;98163.19;;;3.92;72.71
75045;BME280;63614;56.026;35.960;2023-03-14T08:02:25;98159.94;;;3.98;72.06
75045;BME280;63614;56.026;35.960;2023-03-14T08:04:51;98145.47;;;3.97;71.82
75045;BME280;63614;56.026;35.960;2023-03-14T08:07:17;98160.38;;;4.02;71.93
75045;BME280;63614;56.026;35.960;2023-03-14T08:09:42;98161.28;;;4.09;71.82
75045;BME280;63614;56.026;35.960;2023-03-14T08:12:08;98170.44;;;4.26;71.25
75045;BME280;63614;56.026;35.960;2023-03-14T08:14:34;98151.81;;;4.39;70.90
75045;BME280;63614;56.026;35.960;2023-03-14T08:16:59;98153.81;;;4.29;70.51
75045;BME280;63614;56.026;35.960;2023-03-14T08:19:25;98155.44;;;4.30;70.49
75045;BME280;63614;56.026;35.960;2023-03-14T08:21:51;98147.06;;;4.13;70.85
75045;BME280;63614;56.026;35.960;2023-03-14T08:24:17;98154.53;;;4.08;71.10
75045;BME280;63614;56.026;35.960;2023-03-14T08:26:43;98162.06;;;4.24;70.83
75045;BME280;63614;56.026;35.960;2023-03-14T08:29:09;98168.44;;;3.98;71.19
75045;BME280;63614;56.026;35.960;2023-03-14T08:31:35;98167.75;;;4.05;71.23
75045;BME280;63614;56.026;35.960;2023-03-14T08:34:02;98154.03;;;3.89;71.52
75045;BME280;63614;56.026;35.960;2023-03-14T08:36:27;98166.22;;;3.95;71.34
75045;BME280;63614;56.026;35.960;2023-03-14T08:38:53;98167.66;;;3.98;71.14
75045;BME280;63614;56.026;35.960;2023-03-14T08:41:20;98161.88;;;3.96;71.62
75045;BME280;63614;56.026;35.960;2023-03-14T08:43:46;98164.81;;;3.93;70.73
75045;BME280;63614;56.026;35.960;2023-03-14T08:46:12;98157.50;;;3.81;71.27
75045;BME280;63614;56.026;35.960;2023-03-14T08:48:37;98163.03;;;3.93;71.59
75045;BME280;63614;56.026;35.960;2023-03-14T08:51:08;98175.91;;;4.08;70.92
75045;BME280;63614;56.026;35.960;2023-03-14T08:53:34;98176.81;;;4.00;70.78
75045;BME280;63614;56.026;35.960;2023-03-14T08:56:00;98167.31;;;4.16;71.00
75045;BME280;63614;56.026;35.960;2023-03-14T08:58:27;98177.84;;;3.91;71.16
75045;BME280;63614;56.026;35.960;2023-03-14T09:00:53;98160.38;;;4.02;70.98
75045;BME280;63614;56.026;35.960;2023-03-14T09:03:18;98176.06;;;3.92;71.06
75045;BME280;63614;56.026;35.960;2023-03-14T09:05:44;98163.28;;;3.98;70.98
75045;BME280;63614;56.026;35.960;2023-03-14T09:08:10;98157.19;;;3.99;70.48
75045;BME280;63614;56.026;35.960;2023-03-14T09:10:36;98165.69;;;3.85;70.86
75045;BME280;63614;56.026;35.960;2023-03-14T09:13:03;98169.97;;;4.08;70.69
75045;BME280;63614;56.026;35.960;2023-03-14T09:15:29;98158.41;;;3.89;70.95
75045;BME280;63614;56.026;35.960;2023-03-14T09:17:55;98175.81;;;4.02;70.98
75045;BME280;63614;56.026;35.960;2023-03-14T09:20:20;98166.50;;;4.00;71.71
75045;BME280;63614;56.026;35.960;2023-03-14T09:22:46;98163.38;;;4.05;71.18
75045;BME280;63614;56.026;35.960;2023-03-14T09:25:12;98154.69;;;3.91;71.04
75045;BME280;63614;56.026;35.960;2023-03-14T09:27:38;98155.31;;;4.08;71.02
75045;BME280;63614;56.026;35.960;2023-03-14T09:30:04;98143.44;;;4.07;70.94
75045;BME280;63614;56.026;35.960;2023-03-14T09:32:30;98136.00;;;4.12;71.19
75045;BME280;63614;56.026;35.960;2023-03-14T09:34:57;98151.66;;;3.88;71.56
75045;BME280;63614;56.026;35.960;2023-03-14T09:37:23;98148.25;;;4.10;72.38
75045;BME280;63614;56.026;35.960;2023-03-14T09:39:48;98125.78;;;4.04;71.49
75045;BME280;63614;56.026;35.960;2023-03-14T09:42:17;98120.91;;;4.09;71.58
75045;BME280;63614;56.026;35.960;2023-03-14T09:44:54;98107.50;;;4.14;71.49
75045;BME280;63614;56.026;35.960;2023-03-14T09:47:23;98119.31;;;4.23;71.48
75045;BME280;63614;56.026;35.960;2023-03-14T09:49:49;98107.50;;;4.29;71.27
75045;BME280;63614;56.026;35.960;2023-03-14T09:52:22;98126.16;;;4.31;70.36
75045;BME280;63614;56.026;35.960;2023-03-14T09:54:57;98116.81;;;4.30;70.81
75045;BME280;63614;56.026;35.960;2023-03-14T09:57:25;98127.28;;;4.43;70.45
75045;BME280;63614;56.026;35.960;2023-03-14T09:59:56;98120.72;;;4.41;69.79
75045;BME280;63614;56.026;35.960;2023-03-14T10:02:24;98101.00;;;4.48;69.81
75045;BME280;63614;56.026;35.960;2023-03-14T10:04:52;98102.44;;;4.50;69.87
75045;BME280;63614;56.026;35.960;2023-03-14T10:07:29;98091.69;;;4.32;69.76
75045;BME280;63614;56.026;35.960;2023-03-14T10:09:56;98090.97;;;4.38;69.80
75045;BME280;63614;56.026;35.960;2023-03-14T10:12:36;98081.91;;;4.57;69.27
75045;BME280;63614;56.026;35.960;2023-03-14T10:17:46;98095.06;;;4.47;68.68
75045;BME280;63614;56.026;35.960;2023-03-14T10:20:35;98077.00;;;4.62;68.58
75045;BME280;63614;56.026;35.960;2023-03-14T10:23:22;98075.91;;;4.71;67.82
75045;BME280;63614;56.026;35.960;2023-03-14T10:28:46;98061.66;;;4.90;67.48
75045;BME280;63614;56.026;35.960;2023-03-14T10:31:14;98070.66;;;5.01;66.90
75045;BME280;63614;56.026;35.960;2023-03-14T10:33:40;98071.53;;;5.08;66.70
75045;BME280;63614;56.026;35.960;2023-03-14T10:38:36;98052.31;;;5.11;66.39
75045;BME280;63614;56.026;35.960;2023-03-14T10:41:32;98067.00;;;5.39;65.25
75045;BME280;63614;56.026;35.960;2023-03-14T10:43:59;98069.53;;;5.32;65.43
75045;BME280;63614;56.026;35.960;2023-03-14T10:46:30;98068.84;;;5.45;65.34
75045;BME280;63614;56.026;35.960;2023-03-14T10:49:27;98064.94;;;5.49;65.34
75045;BME280;63614;56.026;35.960;2023-03-14T10:51:54;98079.50;;;5.63;64.92
75045;BME280;63614;56.026;35.960;2023-03-14T10:54:21;98105.88;;;5.87;63.98
75045;BME280;63614;56.026;35.960;2023-03-14T10:56:59;98104.69;;;6.18;63.12
75045;BME280;63614;56.026;35.960;2023-03-14T10:59:29;98097.69;;;6.47;62.19
75045;BME280;63614;56.026;35.960;2023-03-14T11:07:55;98099.13;;;6.56;61.74
75045;BME280;63614;56.026;35.960;2023-03-14T11:10:29;98106.34;;;6.32;62.30
75045;BME280;63614;56.026;35.960;2023-03-14T11:15:32;98089.34;;;6.45;61.58
75045;BME280;63614;56.026;35.960;2023-03-14T11:32:32;98137.13;;;6.27;62.24
75045;BME280;63614;56.026;35.960;2023-03-14T11:35:03;98121.63;;;6.27;62.02
75045;BME280;63614;56.026;35.960;2023-03-14T11:37:35;98138.53;;;6.36;61.59
75045;BME280;63614;56.026;35.960;2023-03-14T11:40:18;98122.88;;;6.03;62.64
75045;BME280;63614;56.026;35.960;2023-03-14T11:42:49;98128.31;;;5.93;62.69
75045;BME280;63614;56.026;35.960;2023-03-14T11:45:25;98140.97;;;5.81;63.18
75045;BME280;63614;56.026;35.960;2023-03-14T11:48:40;98137.03;;;5.86;63.23
75045;BME280;63614;56.026;35.960;2023-03-14T11:51:22;98141.38;;;5.85;63.10
75045;BME280;63614;56.026;35.960;2023-03-14T11:54:14;98137.94;;;5.99;62.73
75045;BME280;63614;56.026;35.960;2023-03-14T11:59:19;98136.25;;;5.92;62.60
75045;BME280;63614;56.026;35.960;2023-03-14T12:02:13;98117.38;;;5.85;62.75
75045;BME280;63614;56.026;35.960;2023-03-14T12:10:09;98101.44;;;5.53;64.13
75045;BME280;63614;56.026;35.960;2023-03-14T12:12:35;98127.84;;;5.55;64.39
75045;BME280;63614;56.026;35.960;2023-03-14T12:15:04;98135.34;;;5.71;63.85
75045;BME280;63614;56.026;35.960;2023-03-14T12:20:15;98148.66;;;5.75;63.77
75045;BME280;63614;56.026;35.960;2023-03-14T12:22:47;98128.13;;;5.38;64.84
75045;BME280;63614;56.026;35.960;2023-03-14T12:25:15;98147.19;;;5.44;64.83
75045;BME280;63614;56.026;35.960;2023-03-14T12:30:32;98125.28;;;5.33;64.90
75045;BME280;63614;56.026;35.960;2023-03-14T12:35:38;98151.78;;;5.49;64.45
75045;BME280;63614;56.026;35.960;2023-03-14T12:41:06;98136.13;;;5.50;64.58
75045;BME280;63614;56.026;35.960;2023-03-14T12:43:38;98148.13;;;5.36;64.92
75045;BME280;63614;56.026;35.960;2023-03-14T12:46:26;98122.66;;;5.26;64.97
75045;BME280;63614;56.026;35.960;2023-03-14T12:51:38;98127.78;;;5.70;63.66
75045;BME280;63614;56.026;35.960;2023-03-14T12:57:19;98137.25;;;5.91;62.78
75045;BME280;63614;56.026;35.960;2023-03-14T13:00:00;98118.72;;;5.80;62.62
75045;BME280;63614;56.026;35.960;2023-03-14T13:02:42;98098.16;;;5.66;62.76
75045;BME280;63614;56.026;35.960;2023-03-14T13:05:18;98121.81;;;5.69;62.72
75045;BME280;63614;56.026;35.960;2023-03-14T13:15:56;98103.22;;;5.80;61.99
75045;BME280;63614;56.026;35.960;2023-03-14T13:21:27;98112.25;;;5.91;61.39
75045;BME280;63614;56.026;35.960;2023-03-14T13:24:02;98107.16;;;5.70;61.83
75045;BME280;63614;56.026;35.960;2023-03-14T13:26:36;98120.66;;;5.50;62.58
75045;BME280;63614;56.026;35.960;2023-03-14T13:29:16;98131.06;;;5.57;61.94
75045;BME280;63614;56.026;35.960;2023-03-14T13:31:47;98129.09;;;5.59;61.96
75045;BME280;63614;56.026;35.960;2023-03-14T13:34:13;98123.22;;;5.72;61.08
75045;BME280;63614;56.026;35.960;2023-03-14T13:36:39;98132.44;;;5.81;60.99
75045;BME280;63614;56.026;35.960;2023-03-14T13:39:10;98120.31;;;6.03;60.60
75045;BME280;63614;56.026;35.960;2023-03-14T13:41:39;98139.91;;;5.97;60.05
75045;BME280;63614;56.026;35.960;2023-03-14T13:44:07;98136.53;;;5.75;60.86
75045;BME280;63614;56.026;35.960;2023-03-14T13:46:35;98128.94;;;5.67;60.75
75045;BME280;63614;56.026;35.960;2023-03-14T13:49:03;98132.94;;;5.48;61.19
75045;BME280;63614;56.026;35.960;2023-03-14T13:51:31;98112.50;;;5.46;60.84
75045;BME280;63614;56.026;35.960;2023-03-14T13:54:01;98113.84;;;5.64;60.44
75045;BME280;63614;56.026;35.960;2023-03-14T13:56:31;98126.50;;;5.59;60.24
75045;BME280;63614;56.026;35.960;2023-03-14T13:58:57;98120.84;;;5.70;60.09
75045;BME280;63614;56.026;35.960;2023-03-14T14:01:32;98109.28;;;5.66;59.98
75045;BME280;63614;56.026;35.960;2023-03-14T14:04:14;98113.19;;;5.55;60.02
75045;BME280;63614;56.026;35.960;2023-03-14T14:06:46;98116.75;;;5.54;60.46
75045;BME280;63614;56.026;35.960;2023-03-14T14:09:37;98122.22;;;5.44;60.17
75045;BME280;63614;56.026;35.960;2023-03-14T14:12:15;98101.59;;;5.44;59.84
75045;BME280;63614;56.026;35.960;2023-03-14T14:14:49;98107.84;;;5.35;60.56
75045;BME280;63614;56.026;35.960;2023-03-14T14:17:28;98100.31;;;5.34;60.49
75045;BME280;63614;56.026;35.960;2023-03-14T14:19:57;98092.69;;;5.25;60.03
75045;BME280;63614;56.026;35.960;2023-03-14T14:22:25;98096.44;;;5.23;60.38
75045;BME280;63614;56.026;35.960;2023-03-14T14:24:51;98092.28;;;5.22;60.71
75045;BME280;63614;56.026;35.960;2023-03-14T14:27:46;98104.41;;;5.06;61.18
75045;BME280;63614;56.026;35.960;2023-03-14T14:32:48;98080.22;;;4.86;61.86
75045;BME280;63614;56.026;35.960;2023-03-14T14:35:34;98075.00;;;4.79;61.30
75045;BME280;63614;56.026;35.960;2023-03-14T14:38:02;98044.28;;;4.78;61.67